createdAt,value
2023-06-01T00:00:59.372Z,13.63
2023-06-01T00:06:17.439Z,13.57
2023-06-01T00:11:19.314Z,13.49
2023-06-01T00:16:23.520Z,13.35
2023-06-01T00:21:25.738Z,13.24
2023-06-01T00:26:28.137Z,13.14
2023-06-01T00:31:30.072Z,13.04
2023-06-01T00:36:32.702Z,12.96
2023-06-01T00:41:34.705Z,12.88
2023-06-01T00:46:38.222Z,12.81
2023-06-01T00:51:41.597Z,12.71
2023-06-01T00:56:43.828Z,12.62
2023-06-01T01:01:45.797Z,12.49
2023-06-01T01:07:12.940Z,12.38
2023-06-01T01:12:37.450Z,12.27
2023-06-01T01:17:47.007Z,12.16
2023-06-01T01:23:32.120Z,12.04
2023-06-01T01:28:41.038Z,11.90
2023-06-01T01:33:46.221Z,11.82
2023-06-01T01:38:48.167Z,11.76
2023-06-01T01:43:51.283Z,11.68
2023-06-01T01:49:04.178Z,11.59
2023-06-01T01:54:08.538Z,11.50
2023-06-01T01:59:11.156Z,11.42
2023-06-01T02:04:13.047Z,12.21
2023-06-01T02:09:14.913Z,14.54
2023-06-01T02:14:16.779Z,15.82
2023-06-01T02:19:18.658Z,15.93
2023-06-01T02:24:20.536Z,14.47
2023-06-01T02:29:25.496Z,13.52
2023-06-01T02:34:27.286Z,12.89
2023-06-01T02:39:29.137Z,12.40
2023-06-01T02:44:30.917Z,12.04
2023-06-01T02:49:32.723Z,11.79
2023-06-01T02:54:34.571Z,11.62
2023-06-01T02:59:36.439Z,11.50
2023-06-01T03:04:38.784Z,11.41
2023-06-01T03:09:40.912Z,11.36
2023-06-01T03:14:43.001Z,11.35
2023-06-01T03:19:44.876Z,12.20
2023-06-01T03:24:50.141Z,14.55
2023-06-01T03:29:52.315Z,16.06
2023-06-01T03:34:54.207Z,16.32
2023-06-01T03:39:56.302Z,15.07
2023-06-01T03:44:58.255Z,14.30
2023-06-01T03:50:02.006Z,13.82
2023-06-01T03:55:11.094Z,13.46
2023-06-01T04:00:19.399Z,13.33
2023-06-01T04:05:26.350Z,13.36
2023-06-01T04:10:28.236Z,13.49
2023-06-01T04:15:29.958Z,13.58
2023-06-01T04:20:33.106Z,13.68
2023-06-01T04:25:35.201Z,13.83
2023-06-01T04:30:37.794Z,14.01
2023-06-01T04:35:39.705Z,14.14
2023-06-01T04:40:42.660Z,14.36
2023-06-01T04:45:44.579Z,14.62
2023-06-01T04:50:47.338Z,14.84
2023-06-01T04:55:49.394Z,14.94
2023-06-01T05:00:52.021Z,14.99
2023-06-01T05:05:53.905Z,15.10
2023-06-01T05:10:55.882Z,15.32
2023-06-01T05:15:57.895Z,15.49
2023-06-01T05:21:03.564Z,15.63
2023-06-01T05:26:06.644Z,15.86
2023-06-01T05:31:08.741Z,16.09
2023-06-01T05:36:10.904Z,16.20
2023-06-01T05:41:12.709Z,16.33
2023-06-01T05:46:14.603Z,16.47
2023-06-01T05:51:16.742Z,16.64
2023-06-01T05:56:18.806Z,16.85
2023-06-01T06:01:21.309Z,17.04
2023-06-01T06:06:24.905Z,17.18
2023-06-01T06:11:27.505Z,17.34
2023-06-01T06:16:29.405Z,17.48
2023-06-01T06:21:32.138Z,17.75
2023-06-01T06:26:34.102Z,17.90
2023-06-01T06:31:35.968Z,18.13
2023-06-01T06:36:38.265Z,18.33
2023-06-01T06:41:43.511Z,18.53
2023-06-01T06:46:45.748Z,18.73
2023-06-01T06:51:47.872Z,18.93
2023-06-01T06:56:49.843Z,19.12
2023-06-01T07:01:51.710Z,19.30
2023-06-01T07:06:54.116Z,19.41
2023-06-01T07:11:55.989Z,19.54
2023-06-01T07:16:58.018Z,19.67
2023-06-01T07:22:01.968Z,19.83
2023-06-01T07:27:06.358Z,20.05
2023-06-01T07:32:09.675Z,20.32
2023-06-01T07:37:17.636Z,20.57
2023-06-01T07:42:21.379Z,20.74
2023-06-01T07:47:25.863Z,20.73
2023-06-01T07:52:28.020Z,20.75
2023-06-01T07:57:29.881Z,20.78
2023-06-01T08:02:32.023Z,20.84
2023-06-01T08:07:34.458Z,21.01
2023-06-01T08:12:37.050Z,21.16
2023-06-01T08:17:39.344Z,21.23
2023-06-01T08:22:42.243Z,21.29
2023-06-01T08:27:44.875Z,21.37
2023-06-01T08:32:46.967Z,21.65
2023-06-01T08:37:49.023Z,21.74
2023-06-01T08:43:06.852Z,21.77
2023-06-01T08:48:14.618Z,21.88
2023-06-01T08:53:22.025Z,22.03
2023-06-01T08:58:26.339Z,22.22
2023-06-01T09:03:28.283Z,22.57
2023-06-01T09:08:30.719Z,22.68
2023-06-01T09:13:38.454Z,22.65
2023-06-01T09:18:55.944Z,22.69
2023-06-01T09:24:22.964Z,22.70
2023-06-01T09:29:24.789Z,22.80
2023-06-01T09:34:26.885Z,22.93
2023-06-01T09:39:35.161Z,22.96
2023-06-01T09:44:43.121Z,23.03
2023-06-01T09:49:45.822Z,23.22
2023-06-01T09:54:55.468Z,23.39
2023-06-01T09:59:58.388Z,23.41
2023-06-01T10:05:01.621Z,23.42
2023-06-01T10:10:04.687Z,23.58
2023-06-01T10:15:20.527Z,23.69
2023-06-01T10:20:39.749Z,23.91
2023-06-01T10:25:47.521Z,24.04
2023-06-01T10:31:36.226Z,24.40
2023-06-01T10:36:53.882Z,24.56
2023-06-01T10:41:58.894Z,24.13
2023-06-01T10:47:01.112Z,24.05
2023-06-01T10:52:28.440Z,24.23
2023-06-01T10:57:30.609Z,24.39
2023-06-01T11:02:33.859Z,24.38
2023-06-01T11:07:39.408Z,24.44
2023-06-01T11:13:18.570Z,24.75
2023-06-01T11:18:42.152Z,24.86
2023-06-01T11:23:48.922Z,25.04
2023-06-01T11:28:53.597Z,25.66
2023-06-01T11:33:57.902Z,26.29
2023-06-01T11:39:06.376Z,26.05
2023-06-01T11:44:19.100Z,25.82
2023-06-01T11:49:22.161Z,26.02
2023-06-01T11:54:27.066Z,26.13
2023-06-01T11:59:41.286Z,26.23
2023-06-01T12:04:43.987Z,26.52
2023-06-01T12:09:46.375Z,26.94
2023-06-01T12:14:50.787Z,27.21
2023-06-01T12:19:53.303Z,26.99
2023-06-01T12:24:55.277Z,26.67
2023-06-01T12:29:59.043Z,26.39
2023-06-01T12:35:08.176Z,26.59
2023-06-01T12:40:11.836Z,27.30
2023-06-01T12:45:13.849Z,27.59
2023-06-01T12:50:16.367Z,27.19
2023-06-01T12:55:19.231Z,26.92
2023-06-01T13:00:26.914Z,27.24
2023-06-01T13:05:29.641Z,27.48
2023-06-01T13:10:32.237Z,27.37
2023-06-01T13:15:35.683Z,27.25
2023-06-01T13:20:39.964Z,27.45
2023-06-01T13:25:41.869Z,27.50
2023-06-01T13:30:44.256Z,27.02
2023-06-01T13:35:47.258Z,26.81
2023-06-01T13:40:49.262Z,27.38
2023-06-01T13:45:51.549Z,27.83
2023-06-01T13:50:53.710Z,27.99
2023-06-01T13:55:55.823Z,27.66
2023-06-01T14:00:57.616Z,26.93
2023-06-01T14:05:59.445Z,26.18
2023-06-01T14:11:01.988Z,25.74
2023-06-01T14:16:04.516Z,25.51
2023-06-01T14:21:06.728Z,25.27
2023-06-01T14:26:08.704Z,25.42
2023-06-01T14:31:10.522Z,25.63
2023-06-01T14:36:12.567Z,25.50
2023-06-01T14:41:14.647Z,25.48
2023-06-01T14:46:16.637Z,25.20
2023-06-01T14:51:18.713Z,24.96
2023-06-01T14:56:22.948Z,25.10
2023-06-01T15:01:25.202Z,25.23
2023-06-01T15:06:27.348Z,25.75
2023-06-01T15:11:29.698Z,26.39
2023-06-01T15:16:32.123Z,26.83
2023-06-01T15:21:34.438Z,26.91
2023-06-01T15:26:36.597Z,26.79
2023-06-01T15:31:38.885Z,26.27
2023-06-01T15:36:40.920Z,25.87
2023-06-01T15:41:43.125Z,25.52
2023-06-01T15:46:46.600Z,25.14
2023-06-01T15:51:48.510Z,24.85
2023-06-01T15:56:50.478Z,24.13
2023-06-01T16:01:53.834Z,23.46
2023-06-01T16:06:57.204Z,23.22
2023-06-01T16:11:59.101Z,23.12
2023-06-01T16:17:01.448Z,22.82
2023-06-01T16:22:04.812Z,22.74
2023-06-01T16:27:08.348Z,22.86
2023-06-01T16:32:10.561Z,22.69
2023-06-01T16:37:12.780Z,22.39
2023-06-01T16:42:14.864Z,22.23
2023-06-01T16:47:16.773Z,22.17
2023-06-01T16:52:18.717Z,22.13
2023-06-01T16:57:22.076Z,21.90
2023-06-01T17:02:24.140Z,21.85
2023-06-01T17:07:26.120Z,21.82
2023-06-01T17:12:27.967Z,21.57
2023-06-01T17:17:30.049Z,21.25
2023-06-01T17:22:32.328Z,20.62
2023-06-01T17:27:34.287Z,20.01
2023-06-01T17:32:36.798Z,19.68
2023-06-01T17:37:39.030Z,19.57
2023-06-01T17:42:41.080Z,19.47
2023-06-01T17:47:43.074Z,19.27
2023-06-01T17:52:45.168Z,19.13
2023-06-01T17:57:47.324Z,18.76
2023-06-01T18:02:50.357Z,18.36
2023-06-01T18:07:53.124Z,18.03
2023-06-01T18:12:55.217Z,17.63
2023-06-01T18:17:57.128Z,17.24
2023-06-01T18:22:59.168Z,16.99
2023-06-01T18:28:00.981Z,16.87
2023-06-01T18:33:03.245Z,16.74
2023-06-01T18:38:05.152Z,16.57
2023-06-01T18:43:11.588Z,16.50
2023-06-01T18:48:13.823Z,16.44
2023-06-01T18:53:16.370Z,16.31
2023-06-01T18:58:18.156Z,16.93
2023-06-01T19:03:20.250Z,18.92
2023-06-01T19:08:22.610Z,19.19
2023-06-01T19:13:37.297Z,17.66
2023-06-01T19:18:39.861Z,16.70
2023-06-01T19:23:54.129Z,16.23
2023-06-01T19:29:06.372Z,15.95
2023-06-01T19:34:10.562Z,15.64
2023-06-01T19:39:27.171Z,16.22
2023-06-01T19:44:31.509Z,18.36
2023-06-01T19:49:40.918Z,19.42
2023-06-01T19:54:43.745Z,19.29
2023-06-01T19:59:45.719Z,17.85
2023-06-01T20:04:47.892Z,16.92
2023-06-01T20:09:50.616Z,16.29
2023-06-01T20:14:52.876Z,15.78
2023-06-01T20:19:55.277Z,16.45
2023-06-01T20:24:57.141Z,19.21
2023-06-01T20:30:03.408Z,19.73
2023-06-01T20:35:09.705Z,17.93
2023-06-01T20:40:42.711Z,16.72
2023-06-01T20:46:04.141Z,15.91
2023-06-01T20:51:36.952Z,16.72
2023-06-01T20:56:57.369Z,19.09
2023-06-01T21:02:08.765Z,17.83
2023-06-01T21:07:10.646Z,16.41
2023-06-01T21:12:12.436Z,16.67
2023-06-01T21:17:14.911Z,18.06
2023-06-01T21:22:17.098Z,16.73
2023-06-01T21:27:18.975Z,15.76
2023-06-01T21:32:21.046Z,16.34
2023-06-01T21:37:22.920Z,18.59
2023-06-01T21:42:24.826Z,17.30
2023-06-01T21:47:26.595Z,16.03
2023-06-01T21:52:28.568Z,16.73
2023-06-01T21:57:30.651Z,18.96
2023-06-01T22:02:32.544Z,19.06
2023-06-01T22:07:34.531Z,17.17
2023-06-01T22:12:36.518Z,15.92
2023-06-01T22:17:39.325Z,16.15
2023-06-01T22:22:41.209Z,18.06
2023-06-01T22:27:43.748Z,16.90
2023-06-01T22:32:45.998Z,15.80
2023-06-01T22:37:47.904Z,17.84
2023-06-01T22:42:51.479Z,18.58
2023-06-01T22:47:54.952Z,16.75
2023-06-01T22:52:56.823Z,16.59
2023-06-01T22:57:58.613Z,18.49
2023-06-01T23:03:00.608Z,17.79
2023-06-01T23:08:11.895Z,16.11
2023-06-01T23:13:15.189Z,16.24
2023-06-01T23:18:17.498Z,18.32
2023-06-01T23:23:19.586Z,18.65
2023-06-01T23:28:21.457Z,16.71
2023-06-01T23:33:23.653Z,15.45
2023-06-01T23:38:25.848Z,16.69
2023-06-01T23:43:27.683Z,18.93
2023-06-01T23:48:29.478Z,18.02
2023-06-01T23:53:31.332Z,16.15
2023-06-01T23:58:33.726Z,16.27
